AirNav   Air Wisconsin Up To $57,000 Bonus
 
 535 users online  

RI01 Kent County Memorial Hospital Heliport
Warwick, Rhode Island, USA

GOING TO WARWICK?


FAA INFORMATION EFFECTIVE 19 MAY 2022

Location

FAA Identifier: RI01
Lat/Long: 41-42-26.0800N 071-28-39.0100W
41-42.434667N 071-28.650167W
41.7072444,-71.4775028
(estimated)
Elevation: 104 ft. / 32 m (estimated)
Variation: 15W (1990)
Time zone: UTC -4 (UTC -5 during Standard Time)
Zip code: 02886

Heliport Operations

Heliport use: Private use, MEDICAL.
Activation date: 02/1990
Control tower: no
ARTCC: BOSTON CENTER
FSS: BRIDGEPORT FLIGHT SERVICE STATION
Attendance: UNATNDD
Segmented circle: no

Heliport Communications

WX ASOS at PVD (2.4 nm E): 124.2 (401-734-2818)
WX ASOS at OQU (7 nm SE): 118.6
WX AWOS-3PT at SFZ (13 nm N): 120.775 (401-334-0324)
WX ASOS at UUU (14 nm SE): 132.075 (401-846-5910)

Nearby radio navigation aids

VOR radial/distance  VOR name  Freq  Var
PVDr258/2.4PROVIDENCE VOR/DME115.6014W
PUTr146/22.1PUTNAM VOR/DME117.4014W
ORWr083/25.1NORWICH VOR/DME110.0014W
SEYr023/32.7SANDY POINT VOR/DME117.8015W
GONr063/34.3GROTON VOR/DME110.8514W

Heliport Services

Runway Information

Helipad H1

Dimensions: 50 x 50 ft. / 15 x 15 m
Surface: asphalt
Latitude: 41-42.434667N
Longitude: 071-28.650167W
Elevation: 104.0 ft.
Traffic pattern: leftleft

Heliport Ownership and Management from official FAA records

Ownership: Privately-owned
Owner: KENT COUNTY MEMORIAL HOSPITAL
455 TOLL GATE ROAD
WARWICK, RI 02886
Phone 401-737-7000
Manager: BRIAN WILLIS
455 TOLL GATE ROAD
WARWICK, RI 02886
Phone 401-737-7000

Additional Remarks

A52-H1 HAS A 70' BLDG 500' SOUTH.
FOR CD CTC PROVIDENCE APCH AT 401-738-8945, WHEN APCH CLSD CTC BOSTON ARTCC AT 603-879-6859.

Instrument Procedures

There are no published instrument procedures at RI01.

Some nearby airports with instrument procedures:

KPVD - Rhode Island TF Green International Airport (2 nm E)
KOQU - Quonset State Airport (7 nm SE)
KSFZ - North Central State Airport (13 nm N)
KUUU - Newport State Airport (14 nm SE)
KLZD - Danielson Airport (20 nm W)
 
Loc | Ops | Rwys | IFR | FBO | Links
Com | Nav | Svcs | Stats | Notes
Area around RI01 (Kent County Memorial Hospital Heliport)
 
Road maps at: MapQuest Bing Google
 
Aerial photo
No photo
 
Sectional chart

 
Airport distance calculator
Flying to Kent County Memorial Hospital Heliport? Find the distance to fly.

From to RI01

Sunrise and sunset
Times for 27-May-2022
 Local
(UTC-4)
 Zulu
(UTC)
Morning civil twilight04:4508:45
Sunrise05:1709:17
Sunset20:0900:09
Evening civil twilight20:4200:42

Current date and time
Zulu (UTC)  27-May-2022 07:09:01
Local (UTC-4)  27-May-2022 03:09:01
 
METAR
KPVD 
2nm E 
270703Z 17004KT 3SM BR BKN005 OVC020 16/16 A3006 RMK AO2 T01610156
KOQU 
7nm SE 
270250Z 25010KT 10SM FEW030 BKN200 16/13 A3014 RMK LAST
KSFZ 
13nm N 
270704Z AUTO 21005KT 1 3/4SM -RA BR FEW006 OVC013 16/15 A3006 RMK AO2 RAB00 P0000 $
KUUU 
14nm SE 
270700Z AUTO 22004KT 4SM BR OVC002 16/16 A3006 RMK AO2 RAE0657 P0000 T01560156
TAF
KPVD 
2nm E 
270536Z 2706/2806 20007KT P6SM OVC025 FM270800 19007KT 5SM -DZ BR OVC008 FM270900 19007KT 2SM -DZ BR OVC003 FM271400 20011G19KT P6SM BKN012 FM272300 20012G24KT 3SM BR SCT003 OVC008
NOTAMs
Click for the latest NOTAMs
NOTAMs are issued by the DoD/FAA and will open in a separate window not controlled by AirNav.

 

 
 

Would you like to see your business listed on this page?

 If your business provides an interesting product or service to pilots, flight crews, aircraft, or users of the Kent County Memorial Hospital Heliport, you should consider listing it here.  To start the listing process, click on the button below
 
Add a business
 

Other Pages about Kent County Memorial Hospital Heliport

Update a link
 
Copyright © AirNav, LLC. All rights reserved. Privacy Policy  Contact